Time;durP1;ratioP1;P1;durP2;ratioP2;P2;SDS_P1;SDS_P2;PMS_P1;PMS_P2;Temp;Humidity;BMP_temperature;BMP_pressure;BME280_temperature;BME280_humidity;BME280_pressure;Samples;Min_cycle;Max_cycle;Signal;HPM_P1;HPM_P2
2023/08/15 00:01:17;;;;;;;13.02;6.97;;;20.10;74.10;;;;;;6219692;23;20035;-78
2023/08/15 00:03:46;;;;;;;12.15;7.38;;;20.00;74.90;;;;;;6245624;23;20016;-77
2023/08/15 00:06:12;;;;;;;14.90;7.05;;;20.00;75.30;;;;;;6244267;23;20087;-79
2023/08/15 00:08:38;;;;;;;10.30;6.20;;;20.00;73.20;;;;;;6244970;23;20004;-78
2023/08/15 00:11:04;;;;;;;9.23;6.20;;;20.00;73.60;;;;;;6243136;23;20075;-79
2023/08/15 00:13:29;;;;;;;10.73;8.02;;;20.00;74.60;;;;;;6219104;23;20390;-78
2023/08/15 00:15:55;;;;;;;11.75;6.10;;;20.00;75.20;;;;;;6221533;23;20018;-78
2023/08/15 00:18:20;;;;;;;9.93;6.45;;;20.00;73.90;;;;;;6248406;23;20019;-79
2023/08/15 00:20:48;;;;;;;12.18;6.85;;;20.10;74.90;;;;;;6245497;23;20000;-78
2023/08/15 00:23:14;;;;;;;9.82;6.13;;;20.20;76.50;;;;;;6245804;23;20015;-77
2023/08/15 00:25:39;;;;;;;9.88;7.18;;;20.30;78.00;;;;;;6245798;23;20277;-78
2023/08/15 00:28:05;;;;;;;9.00;6.63;;;20.30;79.30;;;;;;6249717;23;20235;-78
2023/08/15 00:30:32;;;;;;;11.68;7.47;;;20.30;77.80;;;;;;6248171;23;20083;-78
2023/08/15 00:32:58;;;;;;;10.85;6.63;;;20.40;79.60;;;;;;6248133;23;20008;-78
2023/08/15 00:35:24;;;;;;;11.38;6.63;;;20.50;81.20;;;;;;6218165;23;20007;-78
2023/08/15 00:37:49;;;;;;;9.45;6.82;;;20.60;81.80;;;;;;6242980;23;20066;-78
2023/08/15 00:40:15;;;;;;;9.68;6.10;;;20.50;81.90;;;;;;6244517;23;20016;-78
2023/08/15 00:42:40;;;;;;;10.40;6.03;;;20.40;81.40;;;;;;6247094;23;20097;-79
2023/08/15 00:45:06;;;;;;;10.55;6.20;;;20.40;81.80;;;;;;6218746;23;20008;-80
2023/08/15 00:47:33;;;;;;;12.52;6.13;;;20.40;82.20;;;;;;6246075;23;20011;-78
2023/08/15 00:49:59;;;;;;;8.73;6.68;;;20.40;82.80;;;;;;6244604;23;20087;-80
2023/08/15 00:52:25;;;;;;;12.98;7.05;;;20.40;82.20;;;;;;6241913;23;20019;-79
2023/08/15 00:54:52;;;;;;;11.18;7.57;;;20.40;82.30;;;;;;6244124;23;20000;-79
2023/08/15 00:57:19;;;;;;;9.23;7.00;;;20.20;79.20;;;;;;6244813;23;20008;-79
2023/08/15 00:59:45;;;;;;;10.13;7.03;;;20.20;77.30;;;;;;6244230;23;20022;-79
2023/08/15 01:02:11;;;;;;;11.57;7.07;;;20.10;76.10;;;;;;6243854;23;20016;-78
2023/08/15 01:04:38;;;;;;;11.15;6.43;;;20.20;76.60;;;;;;6244479;23;20004;-78
2023/08/15 01:07:04;;;;;;;11.55;7.10;;;20.20;77.50;;;;;;6243478;23;20000;-78
2023/08/15 01:09:30;;;;;;;14.90;7.05;;;20.30;78.60;;;;;;6215033;23;20008;-79
2023/08/15 01:12:15;;;;;;;11.70;6.50;;;20.30;79.40;;;;;;6242751;23;20392;-78
2023/08/15 01:14:51;;;;;;;11.50;5.97;;;20.30;80.70;;;;;;6217328;23;20012;-78
2023/08/15 01:17:30;;;;;;;11.63;6.60;;;20.40;82.00;;;;;;6243222;23;20043;-78
2023/08/15 01:19:59;;;;;;;12.45;6.50;;;20.40;82.40;;;;;;6243119;23;20012;-80
2023/08/15 01:22:30;;;;;;;11.07;6.57;;;20.30;82.50;;;;;;6215536;23;20070;-80
2023/08/15 01:24:56;;;;;;;11.65;6.80;;;20.30;83.20;;;;;;6243909;23;20023;-78
2023/08/15 01:27:25;;;;;;;9.05;6.38;;;20.40;84.00;;;;;;6243378;23;20000;-78
2023/08/15 01:29:50;;;;;;;12.88;6.80;;;20.30;84.20;;;;;;6242965;23;20056;-78
2023/08/15 01:32:42;;;;;;;11.18;6.55;;;20.30;83.80;;;;;;6243307;23;20016;-78
2023/08/15 01:35:21;;;;;;;8.98;6.28;;;20.10;81.70;;;;;;6245188;23;20004;-79
2023/08/15 01:37:54;;;;;;;11.52;7.05;;;20.20;82.20;;;;;;6247031;23;20074;-79
2023/08/15 01:40:22;;;;;;;11.95;6.97;;;20.20;83.50;;;;;;6247067;23;20008;-80
2023/08/15 01:42:49;;;;;;;11.73;6.90;;;20.40;86.30;;;;;;6247371;23;20008;-79
2023/08/15 01:45:15;;;;;;;9.93;6.40;;;20.50;88.10;;;;;;6247689;23;20082;-79
2023/08/15 01:47:42;;;;;;;12.05;6.45;;;20.60;89.10;;;;;;6248733;23;20016;-79
2023/08/15 01:50:08;;;;;;;15.88;6.05;;;20.90;91.70;;;;;;6247153;23;20448;-79
2023/08/15 01:52:34;;;;;;;10.23;6.43;;;20.90;91.60;;;;;;6246097;23;20004;-79
2023/08/15 01:54:59;;;;;;;8.07;5.85;;;20.80;91.00;;;;;;6249168;23;20000;-79
2023/08/15 01:57:25;;;;;;;13.70;6.90;;;20.60;90.30;;;;;;6248948;23;20008;-79
2023/08/15 01:59:50;;;;;;;13.63;6.63;;;20.60;89.50;;;;;;6248578;23;20012;-79
2023/08/15 02:02:16;;;;;;;11.75;6.50;;;20.50;88.80;;;;;;6248050;23;20091;-79
2023/08/15 02:04:44;;;;;;;11.13;5.90;;;20.40;87.70;;;;;;6247882;23;20004;-79
2023/08/15 02:07:10;;;;;;;10.98;7.15;;;20.30;86.90;;;;;;6245980;23;19996;-79
2023/08/15 02:09:35;;;;;;;13.63;6.35;;;20.30;87.60;;;;;;6249177;23;20018;-78
2023/08/15 02:12:01;;;;;;;9.93;5.80;;;20.20;86.90;;;;;;6247075;23;20067;-78
2023/08/15 02:14:26;;;;;;;13.25;6.95;;;20.10;85.10;;;;;;6219153;23;19996;-79
2023/08/15 02:16:52;;;;;;;9.50;6.00;;;20.10;85.50;;;;;;6246744;23;20011;-79
2023/08/15 02:19:17;;;;;;;9.40;6.50;;;20.00;84.30;;;;;;6220094;23;20028;-79
2023/08/15 02:21:43;;;;;;;12.27;7.60;;;19.90;83.70;;;;;;6245287;23;20000;-78
2023/08/15 02:24:09;;;;;;;11.80;6.03;;;19.90;83.90;;;;;;6245281;23;20020;-79
2023/08/15 02:26:35;;;;;;;9.57;6.07;;;19.90;83.90;;;;;;6220368;23;20015;-79
2023/08/15 02:29:02;;;;;;;12.57;7.25;;;19.90;83.50;;;;;;6246763;23;20261;-79
2023/08/15 02:31:30;;;;;;;10.32;6.13;;;19.80;83.00;;;;;;6246443;23;20054;-79
2023/08/15 02:33:55;;;;;;;10.32;6.25;;;19.80;82.10;;;;;;6247264;23;20135;-79
2023/08/15 02:36:21;;;;;;;12.90;7.03;;;19.80;83.30;;;;;;6218642;23;20004;-79
2023/08/15 02:38:46;;;;;;;10.23;6.22;;;19.80;83.60;;;;;;6220477;23;20379;-78
2023/08/15 02:41:12;;;;;;;11.68;7.20;;;19.80;83.80;;;;;;6246699;23;20308;-79
2023/08/15 02:43:37;;;;;;;11.00;7.10;;;19.70;84.00;;;;;;6248701;23;20308;-80
2023/08/15 02:46:03;;;;;;;9.73;6.70;;;19.60;83.10;;;;;;6223399;23;20011;-79
2023/08/15 02:48:28;;;;;;;12.20;6.72;;;19.60;81.80;;;;;;6248800;23;20000;-79
2023/08/15 02:50:54;;;;;;;15.18;8.07;;;19.60;82.10;;;;;;6249249;23;20071;-79
2023/08/15 02:53:20;;;;;;;10.25;7.93;;;19.50;82.30;;;;;;6223275;23;20003;-79
2023/08/15 02:55:50;;;;;;;12.73;8.35;;;19.40;80.40;;;;;;6249985;23;20015;-79
2023/08/15 02:58:16;;;;;;;8.18;6.63;;;19.40;80.50;;;;;;6249592;23;20007;-79
2023/08/15 03:00:43;;;;;;;10.82;8.20;;;19.30;80.20;;;;;;6250966;23;20054;-79
2023/08/15 03:03:08;;;;;;;13.18;8.52;;;19.30;80.90;;;;;;6249858;23;20034;-79
2023/08/15 03:05:37;;;;;;;16.65;7.85;;;19.10;79.00;;;;;;6221959;23;20028;-78
2023/08/15 03:08:03;;;;;;;16.00;7.68;;;19.00;75.90;;;;;;6249587;23;19997;-79
2023/08/15 03:10:28;;;;;;;13.80;7.70;;;19.00;76.20;;;;;;6250366;23;19996;-79
2023/08/15 03:12:54;;;;;;;11.00;7.68;;;19.00;74.50;;;;;;6249457;23;20038;-79
2023/08/15 03:15:20;;;;;;;13.52;7.97;;;18.90;74.80;;;;;;6249435;23;20008;-78
2023/08/15 03:17:45;;;;;;;12.90;8.13;;;18.90;75.20;;;;;;6250398;23;20058;-79
2023/08/15 03:20:12;;;;;;;9.38;8.02;;;18.80;73.70;;;;;;6223167;23;20044;-79
2023/08/15 03:22:37;;;;;;;12.27;7.78;;;18.80;74.10;;;;;;6249782;23;20087;-79
2023/08/15 03:25:03;;;;;;;13.90;8.52;;;18.80;74.00;;;;;;6249960;23;20320;-79
2023/08/15 03:27:32;;;;;;;14.00;8.13;;;18.80;74.90;;;;;;6249147;23;20004;-79
2023/08/15 03:29:57;;;;;;;15.93;8.43;;;18.80;73.20;;;;;;6224278;23;20001;-79
2023/08/15 03:32:23;;;;;;;12.45;7.53;;;18.80;73.60;;;;;;6251260;23;20016;-79
2023/08/15 03:34:48;;;;;;;14.32;7.20;;;18.90;73.00;;;;;;6249710;23;20000;-79
2023/08/15 03:37:14;;;;;;;12.65;7.38;;;19.00;74.40;;;;;;6249307;23;20035;-79
2023/08/15 03:39:39;;;;;;;13.10;7.85;;;19.00;75.30;;;;;;6221469;23;20004;-79
2023/08/15 03:42:05;;;;;;;13.95;7.10;;;19.10;76.80;;;;;;6222783;23;20269;-79
2023/08/15 03:44:31;;;;;;;12.70;7.03;;;19.10;78.90;;;;;;6249682;23;20011;-79
2023/08/15 03:46:56;;;;;;;9.85;7.00;;;19.20;79.70;;;;;;6249418;23;19996;-81
2023/08/15 03:49:22;;;;;;;11.50;7.50;;;19.30;80.70;;;;;;6250520;23;20075;-80
2023/08/15 03:51:47;;;;;;;10.95;6.78;;;19.30;81.40;;;;;;6249879;23;20004;-79
2023/08/15 03:54:13;;;;;;;11.75;7.95;;;19.30;82.20;;;;;;6249350;23;20000;-79
2023/08/15 03:56:39;;;;;;;10.18;7.25;;;19.20;82.10;;;;;;6248445;23;20475;-78
2023/08/15 03:59:04;;;;;;;16.50;7.95;;;19.20;81.70;;;;;;6249022;23;20015;-79
2023/08/15 04:01:30;;;;;;;14.23;7.35;;;19.20;81.70;;;;;;6250418;23;20370;-79
2023/08/15 04:03:56;;;;;;;12.50;6.65;;;19.10;81.00;;;;;;6222609;23;20066;-79
2023/08/15 04:06:22;;;;;;;14.70;7.30;;;19.20;82.60;;;;;;6248243;23;20004;-79
2023/08/15 04:08:47;;;;;;;13.23;6.63;;;19.30;85.30;;;;;;6221753;23;20036;-79
2023/08/15 04:11:13;;;;;;;13.15;7.90;;;19.30;84.90;;;;;;6248761;23;20054;-79
2023/08/15 04:13:39;;;;;;;11.25;6.93;;;19.30;84.50;;;;;;6248886;23;20011;-79
2023/08/15 04:16:04;;;;;;;13.10;6.93;;;19.40;84.10;;;;;;6247868;23;20030;-79
2023/08/15 04:18:30;;;;;;;9.60;6.53;;;19.40;84.30;;;;;;6246475;23;20374;-78
2023/08/15 04:20:55;;;;;;;15.82;7.53;;;19.30;84.70;;;;;;6246505;23;20014;-78
2023/08/15 04:23:21;;;;;;;10.25;7.07;;;19.20;85.80;;;;;;6247231;23;20007;-78
2023/08/15 04:25:47;;;;;;;10.48;6.95;;;19.10;83.20;;;;;;6247527;23;20156;-77
2023/08/15 04:28:12;;;;;;;12.15;6.78;;;19.10;84.00;;;;;;6247675;23;20310;-78
2023/08/15 04:30:38;;;;;;;12.13;7.18;;;19.10;84.80;;;;;;6247761;23;20031;-79
2023/08/15 04:33:04;;;;;;;11.00;6.82;;;19.20;84.30;;;;;;6220508;23;20056;-79
2023/08/15 04:35:30;;;;;;;9.88;6.43;;;19.20;83.60;;;;;;6245399;23;20004;-79
2023/08/15 04:37:55;;;;;;;14.50;7.38;;;19.30;82.80;;;;;;6221109;23;20016;-79
2023/08/15 04:40:30;;;;;;;10.38;7.00;;;19.50;83.80;;;;;;6247505;23;20038;-79
2023/08/15 04:42:56;;;;;;;12.13;7.28;;;19.50;84.50;;;;;;6248578;23;20007;-80
2023/08/15 04:45:21;;;;;;;14.18;6.60;;;19.60;85.20;;;;;;6249678;22;20008;-80
2023/08/15 04:47:47;;;;;;;11.38;7.03;;;19.60;84.00;;;;;;6248179;23;20000;-80
2023/08/15 04:50:15;;;;;;;11.63;7.20;;;19.70;85.30;;;;;;6246676;23;20027;-79
2023/08/15 04:52:41;;;;;;;9.75;6.43;;;19.80;84.80;;;;;;6247398;23;20281;-79
2023/08/15 04:55:10;;;;;;;12.10;6.57;;;19.80;86.40;;;;;;6247033;23;20012;-79
2023/08/15 04:57:37;;;;;;;13.32;6.60;;;19.90;87.70;;;;;;6249301;23;20066;-79
2023/08/15 05:00:08;;;;;;;9.80;6.72;;;19.90;87.80;;;;;;6248502;23;20012;-79
2023/08/15 05:02:35;;;;;;;8.95;6.13;;;19.90;88.90;;;;;;6249852;23;20075;-79
2023/08/15 05:05:11;;;;;;;10.93;6.50;;;19.90;88.80;;;;;;6248071;23;20008;-79
2023/08/15 05:07:37;;;;;;;8.65;6.35;;;19.90;87.50;;;;;;6246963;23;20003;-79
2023/08/15 05:10:03;;;;;;;12.05;6.70;;;20.00;86.50;;;;;;6246996;23;20000;-79
2023/08/15 05:12:29;;;;;;;10.25;6.40;;;20.10;86.10;;;;;;6247948;23;20003;-79
2023/08/15 05:14:54;;;;;;;10.82;5.93;;;20.20;87.20;;;;;;6249783;23;20009;-79
2023/08/15 05:17:20;;;;;;;11.18;5.97;;;20.40;88.50;;;;;;6249933;23;20000;-80
2023/08/15 05:19:46;;;;;;;12.88;5.82;;;20.50;89.90;;;;;;6248629;23;20413;-79
2023/08/15 05:22:11;;;;;;;11.27;6.20;;;20.60;90.70;;;;;;6246824;23;20035;-80
2023/08/15 05:24:37;;;;;;;9.18;6.00;;;20.70;90.80;;;;;;6222094;23;20016;-79
2023/08/15 05:27:02;;;;;;;11.68;7.00;;;20.80;90.80;;;;;;6250020;23;20007;-79
2023/08/15 05:29:28;;;;;;;9.38;6.13;;;20.80;91.10;;;;;;6249178;23;19996;-78
2023/08/15 05:31:53;;;;;;;9.63;6.25;;;20.80;91.10;;;;;;6249039;23;20000;-79
2023/08/15 05:34:19;;;;;;;11.10;6.68;;;20.80;90.30;;;;;;6222083;23;19996;-80
2023/08/15 05:36:44;;;;;;;11.70;7.30;;;20.80;89.80;;;;;;6246767;23;20317;-80
2023/08/15 05:39:13;;;;;;;12.27;6.40;;;20.70;88.70;;;;;;6249418;23;20008;-87
2023/08/15 05:41:38;;;;;;;9.63;5.90;;;20.70;88.80;;;;;;6248703;23;20016;-80
2023/08/15 05:44:04;;;;;;;10.38;6.03;;;20.80;89.50;;;;;;6249825;23;20014;-80
2023/08/15 05:46:30;;;;;;;12.30;6.45;;;20.90;90.70;;;;;;6249499;23;20003;-79
2023/08/15 05:48:55;;;;;;;9.02;6.65;;;20.90;91.30;;;;;;6222380;23;20004;-79
2023/08/15 05:51:21;;;;;;;12.13;6.65;;;20.90;91.60;;;;;;6218660;23;20004;-80
2023/08/15 05:53:46;;;;;;;11.15;6.30;;;20.90;92.30;;;;;;6247236;23;19996;-79
2023/08/15 05:56:12;;;;;;;9.98;6.47;;;20.90;91.10;;;;;;6248683;23;20000;-79
2023/08/15 05:58:37;;;;;;;10.70;6.35;;;20.90;93.00;;;;;;6249959;23;20008;-80
2023/08/15 06:01:04;;;;;;;10.52;6.15;;;21.10;92.50;;;;;;6249611;23;20312;-79
2023/08/15 06:03:29;;;;;;;12.88;6.15;;;21.20;92.90;;;;;;6250022;23;20004;-79
2023/08/15 06:05:56;;;;;;;11.20;6.10;;;21.20;93.10;;;;;;6221101;23;20065;-79
2023/08/15 06:08:21;;;;;;;14.35;6.05;;;21.30;95.20;;;;;;6248417;23;20004;-80
2023/08/15 06:10:47;;;;;;;9.23;5.90;;;21.50;94.30;;;;;;6222579;23;20003;-80
2023/08/15 06:13:12;;;;;;;12.32;6.00;;;21.60;98.00;;;;;;6249526;23;20008;-79
2023/08/15 06:15:38;;;;;;;12.27;5.00;;;21.80;95.90;;;;;;6248237;23;20027;-78
2023/08/15 06:18:04;;;;;;;10.55;5.53;;;22.10;97.60;;;;;;6249567;23;20404;-79
2023/08/15 06:20:29;;;;;;;11.02;5.47;;;22.50;97.50;;;;;;6221203;23;20432;-80
2023/08/15 06:22:55;;;;;;;12.88;4.68;;;22.80;98.00;;;;;;6249010;23;20008;-80
2023/08/15 06:25:21;;;;;;;8.15;4.47;;;22.90;98.00;;;;;;6248138;23;20016;-80
2023/08/15 06:27:46;;;;;;;8.38;4.97;;;23.30;98.00;;;;;;6248158;23;20000;-80
2023/08/15 06:30:12;;;;;;;11.85;4.78;;;23.50;98.00;;;;;;6249878;23;20004;-80
2023/08/15 06:32:38;;;;;;;11.38;5.40;;;23.70;98.00;;;;;;6223272;23;20004;-80
2023/08/15 06:35:05;;;;;;;7.88;4.80;;;24.00;98.00;;;;;;6249189;23;20019;-79
2023/08/15 06:37:31;;;;;;;7.50;4.55;;;24.00;98.00;;;;;;6219910;23;20463;-80
2023/08/15 06:39:56;;;;;;;10.30;4.72;;;24.20;98.00;;;;;;6222712;23;20035;-80
2023/08/15 06:42:22;;;;;;;8.02;4.50;;;24.30;97.20;;;;;;6249629;23;20004;-80
2023/08/15 06:44:47;;;;;;;12.07;5.00;;;24.50;97.40;;;;;;6248911;23;20000;-79
2023/08/15 06:47:13;;;;;;;10.25;4.85;;;24.60;97.30;;;;;;6249871;23;20007;-80
2023/08/15 06:49:38;;;;;;;10.88;4.75;;;24.20;96.50;;;;;;6249238;23;20028;-80
2023/08/15 06:52:04;;;;;;;11.18;4.38;;;24.50;96.70;;;;;;6247433;23;19996;-80
2023/08/15 06:54:30;;;;;;;9.90;4.20;;;24.70;96.10;;;;;;6249253;23;20389;-79
2023/08/15 06:56:55;;;;;;;8.27;4.30;;;24.90;96.10;;;;;;6249252;23;20095;-79
2023/08/15 06:59:23;;;;;;;10.57;4.38;;;25.10;96.70;;;;;;6249217;23;20004;-80
2023/08/15 07:01:50;;;;;;;10.68;4.03;;;25.10;94.80;;;;;;6248475;23;20004;-79
2023/08/15 07:04:16;;;;;;;8.07;3.50;;;24.90;95.50;;;;;;6249594;23;20016;-79
2023/08/15 07:06:41;;;;;;;11.23;3.88;;;25.20;94.20;;;;;;6247397;23;20008;-79
2023/08/15 07:09:11;;;;;;;9.90;3.92;;;25.40;93.60;;;;;;6222262;23;20007;-79
2023/08/15 07:11:36;;;;;;;10.00;4.32;;;25.80;92.30;;;;;;6249193;23;20004;-79
2023/08/15 07:14:02;;;;;;;14.25;4.70;;;26.30;93.10;;;;;;6249073;23;20079;-79
2023/08/15 07:16:27;;;;;;;11.20;3.85;;;26.10;91.40;;;;;;6249231;23;20011;-79
2023/08/15 07:18:53;;;;;;;12.23;4.30;;;26.20;91.20;;;;;;6249542;23;20097;-80
2023/08/15 07:21:22;;;;;;;10.77;3.60;;;25.70;93.70;;;;;;6247695;23;20011;-80
2023/08/15 07:23:47;;;;;;;9.63;3.60;;;25.70;95.00;;;;;;6249160;23;20005;-79
2023/08/15 07:26:13;;;;;;;10.95;3.80;;;25.90;94.80;;;;;;6249107;23;20273;-78
2023/08/15 07:28:39;;;;;;;8.07;4.35;;;25.90;94.30;;;;;;6222280;23;20062;-78
2023/08/15 07:31:05;;;;;;;11.35;3.70;;;26.00;95.10;;;;;;6250349;23;20047;-78
2023/08/15 07:33:31;;;;;;;9.82;3.35;;;26.10;94.00;;;;;;6251438;23;20008;-78
2023/08/15 07:35:56;;;;;;;14.38;3.92;;;26.20;94.30;;;;;;6222859;23;20266;-78
2023/08/15 07:38:22;;;;;;;7.45;3.38;;;25.80;92.30;;;;;;6250543;23;20004;-80
2023/08/15 07:40:47;;;;;;;8.27;3.70;;;25.80;93.70;;;;;;6224872;23;20020;-80
2023/08/15 07:43:13;;;;;;;11.70;3.58;;;25.90;92.90;;;;;;6251241;23;20000;-80
2023/08/15 07:45:39;;;;;;;8.32;3.78;;;25.80;93.40;;;;;;6250435;23;20359;-80
2023/08/15 07:48:07;;;;;;;9.15;3.70;;;25.50;93.90;;;;;;6250805;23;19996;-80
2023/08/15 07:50:33;;;;;;;9.82;4.10;;;25.40;94.50;;;;;;6249430;23;20000;-79
2023/08/15 07:52:59;;;;;;;10.32;4.00;;;25.30;94.70;;;;;;6251370;23;20015;-79
2023/08/15 07:55:27;;;;;;;12.00;3.85;;;25.30;95.10;;;;;;6224761;23;20012;-79
2023/08/15 07:57:53;;;;;;;11.30;3.80;;;25.50;94.20;;;;;;6250566;23;20050;-79
2023/08/15 08:00:18;;;;;;;9.57;3.53;;;26.10;93.50;;;;;;6250587;23;20008;-79
2023/08/15 08:02:44;;;;;;;12.45;3.53;;;26.80;90.70;;;;;;6250697;23;20011;-79
2023/08/15 08:05:11;;;;;;;12.07;3.42;;;27.10;88.80;;;;;;6249649;23;20353;-78
2023/08/15 08:07:39;;;;;;;9.77;3.60;;;26.80;84.70;;;;;;6250242;23;20008;-79
2023/08/15 08:10:05;;;;;;;7.90;2.95;;;27.40;88.70;;;;;;6251122;23;20011;-79
2023/08/15 08:12:31;;;;;;;6.68;2.58;;;28.90;84.70;;;;;;6224120;23;20394;-79
2023/08/15 08:14:57;;;;;;;10.00;3.53;;;29.90;80.10;;;;;;6250520;23;20004;-79
2023/08/15 08:17:23;;;;;;;7.78;2.95;;;30.20;77.00;;;;;;6250967;23;20015;-79
2023/08/15 08:19:48;;;;;;;10.45;2.65;;;30.70;76.20;;;;;;6250451;23;20107;-79
2023/08/15 08:22:14;;;;;;;7.85;3.30;;;31.70;75.90;;;;;;6249277;23;20019;-79
2023/08/15 08:24:39;;;;;;;7.25;2.90;;;32.60;71.70;;;;;;6250430;23;20008;-79
2023/08/15 08:27:05;;;;;;;9.65;2.85;;;32.60;67.90;;;;;;6224437;23;20380;-79
2023/08/15 08:29:31;;;;;;;7.72;2.78;;;31.70;67.40;;;;;;6250134;23;20001;-78
2023/08/15 08:31:57;;;;;;;10.15;3.25;;;31.80;68.10;;;;;;6250352;23;20296;-79
2023/08/15 08:34:22;;;;;;;11.57;3.38;;;32.30;67.10;;;;;;6223944;23;20004;-79
2023/08/15 08:36:48;;;;;;;11.90;3.42;;;32.40;65.10;;;;;;6247590;23;20012;-79
2023/08/15 08:39:13;;;;;;;10.70;3.45;;;32.00;67.60;;;;;;6249958;23;20008;-79
2023/08/15 08:41:39;;;;;;;11.07;3.40;;;31.20;66.50;;;;;;6249808;23;20000;-79
2023/08/15 08:44:05;;;;;;;14.68;3.60;;;30.00;69.80;;;;;;6249858;23;20012;-79
2023/08/15 08:46:32;;;;;;;14.52;3.65;;;29.20;72.80;;;;;;6250383;23;20054;-79
2023/08/15 08:49:00;;;;;;;8.18;3.15;;;28.50;73.30;;;;;;6250781;23;20080;-79
2023/08/15 08:51:27;;;;;;;11.43;3.20;;;28.40;74.00;;;;;;6220506;23;20499;-79
2023/08/15 08:53:53;;;;;;;10.23;3.33;;;28.10;73.20;;;;;;6248720;23;19996;-78
2023/08/15 08:56:22;;;;;;;12.73;3.85;;;28.40;73.70;;;;;;6249871;23;20011;-79
2023/08/15 08:58:59;;;;;;;11.75;3.17;;;28.70;72.70;;;;;;6248596;23;20361;-79
2023/08/15 09:01:29;;;;;;;10.40;3.30;;;29.50;71.60;;;;;;6250327;23;20008;-79
2023/08/15 09:03:55;;;;;;;9.55;3.30;;;30.20;69.40;;;;;;6250130;23;20087;-79
2023/08/15 09:06:21;;;;;;;9.23;2.80;;;30.40;67.60;;;;;;6248215;23;20000;-79
2023/08/15 09:08:47;;;;;;;7.13;2.78;;;30.50;68.10;;;;;;6250401;23;20004;-79
2023/08/15 09:11:12;;;;;;;12.13;2.90;;;31.00;66.60;;;;;;6250559;23;20410;-78
2023/08/15 09:13:48;;;;;;;10.90;2.20;;;31.20;64.30;;;;;;6250287;23;20377;-79
2023/08/15 09:16:15;;;;;;;7.68;2.10;;;31.10;63.20;;;;;;6250433;23;20079;-79
2023/08/15 09:18:41;;;;;;;7.10;2.00;;;31.50;62.20;;;;;;6223748;23;20011;-78
2023/08/15 09:21:07;;;;;;;4.88;2.00;;;31.90;59.90;;;;;;6222427;23;20011;-78
2023/08/15 09:23:33;;;;;;;7.07;2.30;;;32.30;60.20;;;;;;6250463;23;20004;-79
2023/08/15 09:26:14;;;;;;;7.18;2.33;;;32.50;59.30;;;;;;6222954;23;20427;-79
2023/08/15 09:28:43;;;;;;;5.95;2.30;;;32.00;58.80;;;;;;6250169;23;20053;-79
2023/08/15 09:31:10;;;;;;;8.23;2.13;;;31.10;59.20;;;;;;6250134;23;20000;-79
2023/08/15 09:33:40;;;;;;;5.88;2.17;;;31.20;59.20;;;;;;6249882;23;20004;-79
2023/08/15 09:36:09;;;;;;;4.32;1.80;;;30.90;59.80;;;;;;6246960;23;20012;-77
2023/08/15 09:38:39;;;;;;;5.90;2.17;;;30.40;61.50;;;;;;6248850;23;20373;-78
2023/08/15 09:41:05;;;;;;;4.75;1.88;;;29.50;61.60;;;;;;6248933;23;20010;-78
2023/08/15 09:43:32;;;;;;;5.20;2.40;;;29.00;62.20;;;;;;6248769;23;20008;-78
2023/08/15 09:46:00;;;;;;;6.55;1.98;;;28.50;63.70;;;;;;6249136;23;20290;-79
2023/08/15 09:48:28;;;;;;;5.68;2.50;;;28.50;64.50;;;;;;6221728;23;20012;-78
2023/08/15 09:50:55;;;;;;;5.03;2.17;;;28.40;65.10;;;;;;6247497;23;20003;-77
2023/08/15 09:53:22;;;;;;;6.85;2.28;;;28.70;66.30;;;;;;6248399;23;20358;-77
2023/08/15 09:55:48;;;;;;;4.18;1.67;;;29.30;65.50;;;;;;6248927;23;20000;-77
2023/08/15 09:58:14;;;;;;;4.93;2.03;;;30.10;63.80;;;;;;6249009;23;20075;-78
2023/08/15 10:00:40;;;;;;;5.57;2.30;;;30.20;63.60;;;;;;6248682;23;20081;-77
2023/08/15 10:03:29;;;;;;;6.18;2.15;;;30.10;63.80;;;;;;6248286;23;20314;-77
2023/08/15 10:05:57;;;;;;;6.05;2.40;;;29.80;64.50;;;;;;6240315;23;20285;-78
2023/08/15 10:08:24;;;;;;;6.65;2.47;;;30.00;62.90;;;;;;6244999;23;20016;-77
2023/08/15 10:10:51;;;;;;;6.38;2.78;;;29.80;62.90;;;;;;6244855;23;20000;-77
2023/08/15 10:13:26;;;;;;;6.45;2.22;;;29.60;63.30;;;;;;6244604;23;20027;-76
2023/08/15 10:15:55;;;;;;;9.70;2.28;;;29.50;64.00;;;;;;6243975;23;20000;-77
2023/08/15 10:18:21;;;;;;;7.22;2.30;;;29.40;65.40;;;;;;6244087;23;20059;-77
2023/08/15 10:20:53;;;;;;;6.07;2.25;;;29.50;65.00;;;;;;6244110;23;20011;-77
2023/08/15 10:23:32;;;;;;;5.45;2.25;;;30.00;66.00;;;;;;6243419;23;20061;-76
2023/08/15 10:25:59;;;;;;;7.45;2.25;;;30.40;64.10;;;;;;6245819;23;20073;-75
2023/08/15 10:28:32;;;;;;;5.60;2.45;;;30.60;63.40;;;;;;6245767;23;20480;-74
2023/08/15 10:30:58;;;;;;;5.72;2.20;;;30.90;64.80;;;;;;6245052;23;20082;-75
2023/08/15 10:33:26;;;;;;;6.47;2.08;;;31.50;62.90;;;;;;6245747;23;20370;-75
2023/08/15 10:35:55;;;;;;;6.93;2.63;;;30.90;62.40;;;;;;6244608;23;20004;-77
2023/08/15 10:38:29;;;;;;;6.40;2.45;;;30.10;65.20;;;;;;6245855;23;20027;-77
2023/08/15 10:41:17;;;;;;;5.38;2.45;;;29.10;67.10;;;;;;6245225;23;20062;-76
2023/08/15 10:43:52;;;;;;;6.97;2.60;;;29.30;67.00;;;;;;6245014;23;20051;-76
2023/08/15 10:46:23;;;;;;;5.20;2.50;;;29.30;67.70;;;;;;6242341;23;20008;-77
2023/08/15 10:48:55;;;;;;;9.10;2.67;;;29.40;69.20;;;;;;6245392;23;20054;-77
2023/08/15 10:51:22;;;;;;;8.13;2.28;;;30.00;66.80;;;;;;6240898;23;20007;-76
2023/08/15 10:53:52;;;;;;;5.50;2.20;;;30.50;66.40;;;;;;6243643;23;20003;-75
2023/08/15 10:56:25;;;;;;;7.30;2.75;;;30.90;64.90;;;;;;6244444;23;20008;-76
2023/08/15 10:58:51;;;;;;;10.25;3.00;;;31.10;65.50;;;;;;6244410;23;20036;-76
2023/08/15 11:01:21;;;;;;;6.72;2.33;;;31.00;65.30;;;;;;6243951;23;20014;-76
2023/08/15 11:03:48;;;;;;;5.35;2.22;;;30.90;65.60;;;;;;6244569;23;20749;-75
2023/08/15 11:06:14;;;;;;;7.57;2.30;;;31.30;64.20;;;;;;6245750;23;20004;-76
2023/08/15 11:08:44;;;;;;;8.13;2.30;;;31.50;64.90;;;;;;6247989;23;20004;-76
2023/08/15 11:11:11;;;;;;;6.72;1.92;;;31.20;64.20;;;;;;6248121;23;20107;-76
2023/08/15 11:13:41;;;;;;;5.35;1.85;;;31.20;62.50;;;;;;6220021;23;20004;-77
2023/08/15 11:16:08;;;;;;;4.78;2.10;;;30.80;64.40;;;;;;6247623;23;20087;-75
2023/08/15 11:18:34;;;;;;;4.53;1.92;;;30.60;62.80;;;;;;6247836;23;20014;-77
2023/08/15 11:21:01;;;;;;;5.93;2.05;;;30.70;64.20;;;;;;6246600;23;20417;-76
2023/08/15 11:23:28;;;;;;;8.57;2.30;;;31.30;64.40;;;;;;6247238;23;20074;-76
2023/08/15 11:26:01;;;;;;;5.53;1.75;;;31.80;62.70;;;;;;6247648;23;20366;-77
2023/08/15 11:28:27;;;;;;;5.60;2.10;;;32.30;60.00;;;;;;6247288;23;20067;-76
2023/08/15 11:30:53;;;;;;;6.78;2.15;;;32.40;60.70;;;;;;6248179;23;20023;-76
2023/08/15 11:33:18;;;;;;;5.38;1.80;;;32.00;59.70;;;;;;6246664;23;20000;-77
2023/08/15 11:35:47;;;;;;;3.92;1.90;;;31.80;60.40;;;;;;6246479;23;20019;-76
2023/08/15 11:38:13;;;;;;;5.43;2.00;;;31.30;60.90;;;;;;6221160;23;20066;-76
2023/08/15 11:40:38;;;;;;;5.20;1.80;;;31.20;62.00;;;;;;6246616;23;20004;-76
2023/08/15 11:43:05;;;;;;;7.13;1.80;;;31.70;63.70;;;;;;6245656;23;20008;-79
2023/08/15 11:45:32;;;;;;;5.40;2.00;;;32.30;61.50;;;;;;6246078;23;20015;-75
2023/08/15 11:48:03;;;;;;;4.68;2.05;;;32.20;59.90;;;;;;6244989;23;20322;-75
2023/08/15 11:50:31;;;;;;;8.25;2.15;;;32.50;60.70;;;;;;6246262;23;20026;-76
2023/08/15 11:52:57;;;;;;;7.03;2.10;;;33.10;61.10;;;;;;6245927;23;20031;-76
2023/08/15 11:55:24;;;;;;;6.55;2.42;;;32.80;60.80;;;;;;6246834;23;20012;-76
2023/08/15 11:57:50;;;;;;;7.45;2.33;;;32.30;61.30;;;;;;6246497;23;20062;-76
2023/08/15 12:00:18;;;;;;;6.07;2.10;;;31.70;61.90;;;;;;6246028;23;20000;-77
2023/08/15 12:02:53;;;;;;;6.43;2.10;;;31.20;62.80;;;;;;6245939;22;20086;-76
2023/08/15 12:05:19;;;;;;;8.43;2.00;;;31.00;62.80;;;;;;6243083;23;20004;-76
2023/08/15 12:07:47;;;;;;;5.57;2.25;;;30.80;62.80;;;;;;6244286;23;20008;-76
2023/08/15 12:10:14;;;;;;;5.65;2.13;;;30.90;67.30;;;;;;6245949;23;20002;-76
2023/08/15 12:12:42;;;;;;;5.03;2.10;;;31.20;63.90;;;;;;6245597;23;20264;-76
2023/08/15 12:15:10;;;;;;;4.20;2.05;;;31.30;62.20;;;;;;6246225;23;20011;-75
2023/08/15 12:17:37;;;;;;;7.97;2.65;;;31.10;64.10;;;;;;6243872;23;20004;-76
2023/08/15 12:20:05;;;;;;;6.25;1.95;;;31.50;65.10;;;;;;6245267;23;20004;-76
2023/08/15 12:22:32;;;;;;;8.25;2.40;;;31.70;62.40;;;;;;6245055;23;20001;-76
2023/08/15 12:24:57;;;;;;;7.90;2.30;;;31.60;61.00;;;;;;6245811;23;20019;-76
2023/08/15 12:27:23;;;;;;;7.50;2.45;;;31.80;62.80;;;;;;6218503;23;20385;-76
2023/08/15 12:29:48;;;;;;;5.72;2.33;;;31.90;62.30;;;;;;6244888;23;19996;-76
2023/08/15 12:32:14;;;;;;;9.05;2.10;;;31.40;63.10;;;;;;6219993;23;20012;-76
2023/08/15 12:34:41;;;;;;;7.90;2.35;;;31.00;63.40;;;;;;6245907;23;19996;-75
2023/08/15 12:37:06;;;;;;;8.65;2.28;;;30.80;64.00;;;;;;6244872;23;20385;-76
2023/08/15 12:39:32;;;;;;;5.95;2.10;;;30.80;64.00;;;;;;6246107;23;20038;-76